Time;durP1;ratioP1;P1;durP2;ratioP2;P2;SDS_P1;SDS_P2;PMS_P1;PMS_P2;Temp;Humidity;BMP_temperature;BMP_pressure;BME280_temperature;BME280_humidity;BME280_pressure;Samples;Min_cycle;Max_cycle;Signal;HPM_P1;HPM_P2
2023/01/30 00:00:18;;;;;;;28.98;15.13;;;6.20;56.10;;;;;;5037866;28;20060;-46
2023/01/30 00:02:47;;;;;;;27.25;14.50;;;6.20;56.10;;;;;;5043203;28;20045;-46
2023/01/30 00:05:14;;;;;;;25.42;13.23;;;6.20;56.00;;;;;;5041458;28;20552;-48
2023/01/30 00:07:42;;;;;;;27.02;14.55;;;6.20;56.10;;;;;;5042331;28;20060;-44
2023/01/30 00:10:10;;;;;;;25.73;13.50;;;6.20;56.10;;;;;;5039611;28;20492;-48
2023/01/30 00:12:37;;;;;;;23.80;12.52;;;6.20;56.10;;;;;;5042456;28;20060;-46
2023/01/30 00:15:06;;;;;;;26.90;14.75;;;6.20;56.10;;;;;;5040237;28;20053;-49
2023/01/30 00:17:33;;;;;;;27.30;14.25;;;6.20;56.10;;;;;;5042715;28;20049;-49
2023/01/30 00:20:02;;;;;;;25.58;14.43;;;6.30;56.10;;;;;;5041904;28;20064;-47
2023/01/30 00:22:29;;;;;;;28.65;14.68;;;6.20;56.10;;;;;;5039699;28;20095;-51
2023/01/30 00:24:56;;;;;;;27.38;15.10;;;6.30;56.20;;;;;;5040511;28;20500;-46
2023/01/30 00:27:24;;;;;;;23.40;13.45;;;6.30;56.20;;;;;;5042720;28;20064;-46
2023/01/30 00:29:51;;;;;;;24.95;14.02;;;6.30;56.20;;;;;;5042182;28;20071;-46
2023/01/30 00:32:18;;;;;;;26.77;14.75;;;6.30;56.30;;;;;;5043145;28;20519;-49
2023/01/30 00:34:45;;;;;;;28.10;14.65;;;6.30;56.40;;;;;;5041589;28;20055;-50
2023/01/30 00:37:14;;;;;;;24.15;13.30;;;6.30;56.40;;;;;;5035777;28;20409;-51
2023/01/30 00:39:41;;;;;;;23.75;13.07;;;6.30;56.40;;;;;;5040622;28;20055;-49
2023/01/30 00:47:39;;;;;;;28.30;14.18;;;6.40;56.50;;;;;;5046224;28;20071;-48
2023/01/30 00:50:07;;;;;;;27.35;13.85;;;6.40;56.50;;;;;;5040883;28;20512;-47
2023/01/30 00:52:35;;;;;;;23.42;12.63;;;6.40;56.50;;;;;;5042021;28;21489;-49
2023/01/30 00:55:03;;;;;;;26.02;14.25;;;6.40;56.50;;;;;;5040727;28;20067;-49
2023/01/30 00:57:30;;;;;;;24.63;13.52;;;6.40;56.50;;;;;;5041650;28;20049;-49
2023/01/30 00:59:57;;;;;;;24.40;13.65;;;6.40;56.50;;;;;;5037086;28;20060;-47
2023/01/30 01:02:25;;;;;;;22.98;12.70;;;6.40;56.40;;;;;;5042662;28;20049;-46
2023/01/30 01:04:52;;;;;;;25.02;13.93;;;6.40;56.50;;;;;;5041813;28;20409;-46
2023/01/30 01:07:19;;;;;;;25.27;13.70;;;6.50;56.50;;;;;;5041834;28;20053;-47
2023/01/30 01:09:48;;;;;;;23.00;12.45;;;6.50;56.50;;;;;;5039608;28;20519;-46
2023/01/30 01:12:15;;;;;;;24.27;12.90;;;6.50;56.60;;;;;;5039991;28;20607;-51
2023/01/30 01:14:42;;;;;;;24.60;13.13;;;6.50;56.60;;;;;;5038221;28;20128;-45
2023/01/30 01:17:09;;;;;;;23.15;13.57;;;6.50;56.70;;;;;;5041160;28;20056;-49
2023/01/30 01:19:36;;;;;;;24.00;13.13;;;6.50;56.80;;;;;;5041555;28;20080;-45
2023/01/30 01:22:04;;;;;;;22.48;12.75;;;6.50;56.80;;;;;;5039834;28;20045;-46
2023/01/30 01:24:32;;;;;;;22.48;12.25;;;6.50;56.90;;;;;;5039634;28;20141;-48
2023/01/30 01:27:01;;;;;;;23.10;13.30;;;6.50;56.90;;;;;;5042164;28;20053;-47
2023/01/30 01:29:28;;;;;;;24.38;12.95;;;6.50;56.90;;;;;;5037952;28;20500;-46
2023/01/30 01:31:57;;;;;;;21.58;12.73;;;6.60;56.90;;;;;;5041628;28;20053;-49
2023/01/30 01:34:25;;;;;;;22.83;12.90;;;6.60;56.90;;;;;;5040433;28;20057;-48
2023/01/30 01:36:52;;;;;;;22.20;11.85;;;6.60;56.90;;;;;;5039991;28;20064;-47
2023/01/30 01:39:19;;;;;;;22.70;12.85;;;6.60;56.80;;;;;;5039759;28;20079;-50
2023/01/30 01:41:45;;;;;;;22.98;12.20;;;6.60;56.80;;;;;;5039656;28;20055;-48
2023/01/30 01:44:15;;;;;;;19.65;11.70;;;6.60;56.80;;;;;;5040055;28;20051;-48
2023/01/30 01:46:47;;;;;;;24.88;12.82;;;6.60;56.80;;;;;;5041229;28;20048;-47
2023/01/30 01:49:19;;;;;;;22.45;12.45;;;6.70;56.90;;;;;;5036344;28;20080;-49
2023/01/30 01:51:52;;;;;;;21.92;12.02;;;6.70;56.90;;;;;;5038434;28;20477;-47
2023/01/30 01:54:27;;;;;;;22.70;12.23;;;6.70;57.00;;;;;;5038613;28;20064;-51
2023/01/30 01:56:54;;;;;;;22.75;12.38;;;6.70;57.00;;;;;;5030048;28;20053;-46
2023/01/30 01:59:26;;;;;;;20.95;11.60;;;6.70;57.00;;;;;;5030580;28;20048;-48
2023/01/30 02:01:57;;;;;;;21.27;11.52;;;6.70;57.00;;;;;;5035369;28;20056;-52
2023/01/30 02:07:09;;;;;;;21.42;12.30;;;6.80;57.10;;;;;;5036361;28;20041;-45
2023/01/30 02:09:37;;;;;;;25.88;12.90;;;6.70;57.00;;;;;;5038697;28;20499;-50
2023/01/30 02:12:05;;;;;;;22.13;12.13;;;6.80;57.00;;;;;;5038858;28;20049;-46
2023/01/30 02:14:34;;;;;;;18.88;11.18;;;6.80;57.00;;;;;;5035264;28;20413;-48
2023/01/30 02:17:02;;;;;;;19.05;11.10;;;6.80;57.00;;;;;;5035894;28;20511;-51
2023/01/30 02:19:38;;;;;;;19.00;10.93;;;6.80;57.00;;;;;;5040883;28;20057;-49
2023/01/30 02:22:41;;;;;;;18.30;10.77;;;6.80;57.10;;;;;;5040361;28;21743;-47
2023/01/30 02:25:41;;;;;;;20.05;10.98;;;6.90;57.10;;;;;;5033634;28;20055;-50
2023/01/30 02:28:46;;;;;;;21.08;10.77;;;6.90;57.00;;;;;;5036332;28;20060;-48
2023/01/30 02:31:24;;;;;;;18.23;10.43;;;6.90;56.90;;;;;;5038358;28;20400;-47
2023/01/30 02:34:05;;;;;;;19.40;10.45;;;6.90;56.90;;;;;;5039685;28;20068;-49
2023/01/30 02:36:45;;;;;;;20.80;11.48;;;6.90;57.50;;;;;;5033487;28;20058;-50
2023/01/30 02:39:19;;;;;;;18.98;10.95;;;7.00;56.90;;;;;;5033920;28;20515;-47
2023/01/30 02:41:51;;;;;;;;;;;7.00;56.90;;;;;;5039875;28;20391;-50
2023/01/30 02:44:25;;;;;;;18.70;10.30;;;7.00;56.90;;;;;;5037955;28;19921;-46
2023/01/30 02:46:58;;;;;;;19.67;10.38;;;7.00;56.70;;;;;;5039340;28;20064;-47
2023/01/30 02:49:32;;;;;;;19.02;10.75;;;7.00;56.70;;;;;;5036815;28;20063;-47
2023/01/30 02:52:01;;;;;;;20.30;10.13;;;7.00;56.70;;;;;;5040218;28;20067;-46
2023/01/30 02:54:28;;;;;;;17.55;10.48;;;7.00;56.70;;;;;;5038885;28;20057;-49
2023/01/30 02:56:58;;;;;;;18.90;9.95;;;7.00;56.70;;;;;;5039312;28;20064;-48
2023/01/30 03:00:06;;;;;;;19.55;9.68;;;7.00;56.80;;;;;;5035062;28;20520;-45
2023/01/30 03:03:14;;;;;;;16.90;9.27;;;7.00;56.80;;;;;;5040524;28;20068;-48
2023/01/30 03:05:59;;;;;;;16.77;9.93;;;7.10;56.90;;;;;;5023633;28;20074;-48
2023/01/30 03:08:34;;;;;;;19.40;11.05;;;7.00;56.90;;;;;;5035341;28;20389;-48
2023/01/30 03:11:05;;;;;;;16.50;9.50;;;7.10;57.00;;;;;;5039107;28;20060;-49
2023/01/30 03:13:44;;;;;;;19.45;10.38;;;7.10;57.10;;;;;;5038031;28;20059;-47
2023/01/30 03:16:17;;;;;;;17.20;9.55;;;7.10;57.20;;;;;;5037718;28;20063;-49
2023/01/30 03:18:47;;;;;;;19.02;9.98;;;7.00;57.20;;;;;;5039014;28;20048;-49
2023/01/30 03:21:14;;;;;;;18.40;9.63;;;7.10;57.30;;;;;;5042733;28;20049;-48
2023/01/30 03:23:44;;;;;;;19.75;10.55;;;7.10;57.30;;;;;;5043091;28;20053;-46
2023/01/30 03:26:16;;;;;;;17.45;9.82;;;7.10;57.40;;;;;;5041427;28;20048;-48
2023/01/30 03:28:46;;;;;;;17.52;10.07;;;7.10;57.40;;;;;;5040114;28;20048;-48
2023/01/30 03:31:13;;;;;;;17.38;10.13;;;7.10;57.50;;;;;;5043842;28;20053;-49
2023/01/30 03:33:40;;;;;;;18.58;10.68;;;7.10;57.50;;;;;;5043942;28;20060;-48
2023/01/30 03:36:09;;;;;;;19.63;10.75;;;7.10;57.60;;;;;;5041836;28;20060;-47
2023/01/30 03:38:37;;;;;;;16.60;9.90;;;7.10;57.60;;;;;;5040119;28;20516;-52
2023/01/30 03:41:05;;;;;;;17.60;10.27;;;7.20;57.70;;;;;;5041773;28;20056;-49
2023/01/30 03:43:33;;;;;;;18.52;10.40;;;7.20;57.70;;;;;;5041124;28;21099;-49
2023/01/30 03:46:00;;;;;;;17.77;9.40;;;7.20;57.70;;;;;;5042865;28;20608;-49
2023/01/30 03:48:27;;;;;;;17.90;10.35;;;7.20;57.80;;;;;;5038603;28;20053;-47
2023/01/30 03:50:55;;;;;;;17.38;10.02;;;7.20;57.80;;;;;;5041496;28;20072;-46
2023/01/30 03:53:24;;;;;;;16.92;9.38;;;7.20;57.80;;;;;;5045144;28;20052;-47
2023/01/30 03:55:51;;;;;;;17.35;9.40;;;7.20;57.90;;;;;;5041249;28;20084;-48
2023/01/30 03:58:18;;;;;;;15.30;9.48;;;7.20;57.90;;;;;;5037770;28;20508;-47
2023/01/30 04:00:45;;;;;;;16.73;8.90;;;7.20;57.90;;;;;;5039867;28;20056;-47
2023/01/30 04:03:14;;;;;;;18.05;10.32;;;7.20;58.00;;;;;;5043194;28;20382;-50
2023/01/30 04:05:42;;;;;;;14.60;8.77;;;7.20;58.00;;;;;;5040037;28;20500;-45
2023/01/30 04:08:10;;;;;;;13.70;8.30;;;7.20;58.00;;;;;;5038724;28;20411;-49
2023/01/30 04:10:38;;;;;;;13.98;8.45;;;7.30;58.10;;;;;;5042143;28;20067;-48
2023/01/30 04:13:06;;;;;;;17.58;8.93;;;7.20;58.10;;;;;;5041105;28;20511;-47
2023/01/30 04:15:33;;;;;;;14.65;8.82;;;7.30;58.30;;;;;;5042248;28;20049;-48
2023/01/30 04:18:00;;;;;;;11.02;7.40;;;7.20;58.30;;;;;;5041596;28;20501;-49
2023/01/30 04:20:27;;;;;;;15.40;8.45;;;7.30;58.40;;;;;;5041910;28;20057;-46
2023/01/30 04:22:55;;;;;;;15.57;8.68;;;7.30;58.50;;;;;;5038895;28;20057;-48
2023/01/30 04:25:22;;;;;;;14.35;8.40;;;7.30;58.50;;;;;;5036199;28;20049;-46
2023/01/30 04:27:51;;;;;;;13.40;8.27;;;7.30;58.50;;;;;;5037495;28;20088;-50
2023/01/30 04:30:18;;;;;;;14.70;8.13;;;7.30;58.60;;;;;;5038184;28;20405;-48
2023/01/30 04:32:45;;;;;;;13.77;8.00;;;7.30;58.50;;;;;;5038681;28;20049;-46
2023/01/30 04:35:13;;;;;;;15.13;7.90;;;7.30;58.50;;;;;;5040164;28;20399;-47
2023/01/30 04:37:40;;;;;;;12.77;7.55;;;7.30;58.50;;;;;;5035133;28;20059;-49
2023/01/30 04:40:08;;;;;;;13.77;7.68;;;7.40;58.60;;;;;;5034678;28;20053;-48
2023/01/30 04:42:36;;;;;;;13.80;7.25;;;7.40;58.50;;;;;;5035207;28;20060;-46
2023/01/30 04:45:05;;;;;;;11.30;7.13;;;7.40;58.50;;;;;;5036069;28;20064;-46
2023/01/30 04:47:33;;;;;;;14.05;6.70;;;7.40;58.50;;;;;;5040380;28;20056;-48
2023/01/30 04:50:00;;;;;;;16.20;8.48;;;7.40;58.50;;;;;;5038034;28;20057;-49
2023/01/30 04:52:27;;;;;;;10.55;6.57;;;7.40;58.60;;;;;;5039170;28;20489;-47
2023/01/30 04:54:54;;;;;;;8.23;5.25;;;7.40;58.60;;;;;;5039653;28;20056;-46
2023/01/30 04:57:21;;;;;;;10.43;5.53;;;7.50;58.70;;;;;;5038063;28;20412;-49
2023/01/30 04:59:49;;;;;;;8.63;5.57;;;7.50;58.70;;;;;;5038153;28;20064;-48
2023/01/30 05:02:17;;;;;;;10.82;5.68;;;7.40;58.80;;;;;;5037162;28;20049;-47
2023/01/30 05:04:44;;;;;;;10.93;5.80;;;7.50;58.90;;;;;;5040308;28;20064;-45
2023/01/30 05:07:12;;;;;;;9.80;5.60;;;7.50;58.90;;;;;;5039677;28;20052;-46
2023/01/30 05:09:39;;;;;;;10.85;5.75;;;7.50;59.00;;;;;;5037280;28;20418;-46
2023/01/30 05:12:07;;;;;;;11.75;5.60;;;7.60;59.00;;;;;;5039051;28;20053;-46
2023/01/30 05:14:34;;;;;;;10.75;6.03;;;7.60;59.00;;;;;;5039479;28;20056;-47
2023/01/30 05:17:02;;;;;;;11.00;6.45;;;7.60;59.00;;;;;;5034291;28;20063;-46
2023/01/30 05:19:31;;;;;;;9.90;5.93;;;7.70;59.10;;;;;;5038570;28;20056;-47
2023/01/30 05:21:58;;;;;;;8.40;5.38;;;7.70;59.10;;;;;;5036474;28;20441;-46
2023/01/30 05:24:25;;;;;;;7.78;4.90;;;7.70;59.10;;;;;;5039717;28;20060;-50
2023/01/30 05:26:52;;;;;;;6.95;4.10;;;7.70;59.10;;;;;;5039916;28;20398;-45
2023/01/30 05:29:20;;;;;;;7.90;4.97;;;7.80;59.10;;;;;;5040254;28;20049;-49
2023/01/30 05:31:47;;;;;;;8.43;4.55;;;7.80;59.10;;;;;;5037993;28;20398;-47
2023/01/30 05:34:14;;;;;;;10.32;5.00;;;7.80;59.00;;;;;;5039074;28;20052;-48
2023/01/30 05:36:43;;;;;;;11.10;5.90;;;7.80;59.00;;;;;;5039498;28;20049;-47
2023/01/30 05:39:10;;;;;;;8.95;4.88;;;7.90;59.10;;;;;;5040686;28;20509;-50
2023/01/30 05:41:37;;;;;;;9.00;4.75;;;7.90;59.20;;;;;;5041115;28;20055;-46
2023/01/30 05:44:05;;;;;;;9.70;4.88;;;7.90;59.10;;;;;;5034858;28;20052;-45
2023/01/30 05:46:32;;;;;;;8.88;4.95;;;7.90;59.10;;;;;;5041198;28;20057;-47
2023/01/30 05:48:59;;;;;;;7.60;4.75;;;7.90;59.20;;;;;;5037253;28;20351;-47
2023/01/30 05:51:27;;;;;;;8.35;4.95;;;8.00;59.30;;;;;;5040056;28;20053;-45
2023/01/30 05:53:56;;;;;;;7.75;4.85;;;8.00;59.80;;;;;;5038915;28;20057;-50
2023/01/30 05:56:23;;;;;;;9.75;5.00;;;8.00;59.40;;;;;;5037903;28;20116;-47
2023/01/30 05:58:51;;;;;;;9.70;5.13;;;8.00;59.40;;;;;;5040215;28;20428;-47
2023/01/30 06:01:19;;;;;;;9.32;4.80;;;8.00;59.40;;;;;;5039866;28;20497;-50
2023/01/30 06:03:46;;;;;;;8.05;4.72;;;8.00;59.60;;;;;;5039372;28;20053;-47
2023/01/30 06:06:14;;;;;;;6.97;4.80;;;8.10;59.80;;;;;;5039924;28;20076;-46
2023/01/30 06:08:41;;;;;;;7.82;5.00;;;8.10;59.80;;;;;;5040535;28;20065;-47
2023/01/30 06:11:12;;;;;;;11.95;5.30;;;8.10;59.80;;;;;;5039778;28;20044;-44
2023/01/30 06:13:40;;;;;;;7.85;4.70;;;8.10;59.80;;;;;;5033381;28;20048;-45
2023/01/30 06:16:10;;;;;;;9.90;5.22;;;8.20;59.90;;;;;;5033046;28;20059;-45
2023/01/30 06:18:38;;;;;;;10.40;5.47;;;8.10;59.90;;;;;;5035930;28;20416;-46
2023/01/30 06:21:06;;;;;;;8.20;5.15;;;8.20;59.90;;;;;;5036255;28;20516;-49
2023/01/30 06:23:33;;;;;;;9.98;5.55;;;8.20;60.00;;;;;;5038356;28;20485;-47
2023/01/30 06:26:00;;;;;;;7.97;4.93;;;8.20;60.10;;;;;;5040458;28;20048;-45
2023/01/30 06:28:29;;;;;;;10.00;4.72;;;8.20;60.10;;;;;;5040252;28;20056;-47
2023/01/30 06:30:56;;;;;;;8.80;4.85;;;8.20;60.00;;;;;;5036440;28;20440;-46
2023/01/30 06:33:23;;;;;;;8.05;5.22;;;8.20;59.90;;;;;;5035512;28;20045;-47
2023/01/30 06:35:52;;;;;;;9.85;5.05;;;8.30;60.20;;;;;;5042285;28;20049;-47
2023/01/30 06:38:19;;;;;;;8.95;5.32;;;8.30;60.20;;;;;;5037278;28;20057;-48
2023/01/30 06:40:49;;;;;;;8.88;4.72;;;8.30;60.10;;;;;;5040169;28;20057;-48
2023/01/30 06:43:17;;;;;;;9.75;5.05;;;8.30;60.10;;;;;;5041904;28;20488;-46
2023/01/30 06:45:45;;;;;;;8.50;4.35;;;8.30;60.10;;;;;;5041355;28;20057;-53
2023/01/30 06:48:13;;;;;;;7.65;4.68;;;8.30;60.00;;;;;;5042413;28;20060;-47
2023/01/30 06:50:40;;;;;;;7.30;3.90;;;8.30;60.10;;;;;;5041971;28;20425;-47
2023/01/30 06:53:08;;;;;;;6.72;4.25;;;8.30;60.00;;;;;;5041479;28;20053;-46
2023/01/30 06:55:36;;;;;;;5.88;3.75;;;8.30;60.00;;;;;;5040230;28;20498;-44
2023/01/30 06:58:05;;;;;;;5.90;4.05;;;8.30;60.00;;;;;;5040985;28;20425;-48
2023/01/30 07:00:34;;;;;;;5.85;2.97;;;8.30;60.00;;;;;;5041920;28;20052;-45
2023/01/30 07:03:02;;;;;;;5.45;3.38;;;8.30;60.00;;;;;;5042199;28;20148;-47
2023/01/30 07:05:30;;;;;;;4.85;3.13;;;8.40;60.10;;;;;;5041391;28;20061;-47
2023/01/30 07:07:57;;;;;;;5.03;2.72;;;8.30;60.00;;;;;;5041114;28;20053;-45
2023/01/30 07:10:25;;;;;;;4.63;2.65;;;8.30;60.00;;;;;;5041193;28;20064;-48
2023/01/30 07:12:53;;;;;;;5.43;3.05;;;8.30;60.00;;;;;;5041492;28;20060;-46
2023/01/30 07:15:20;;;;;;;4.00;2.70;;;8.40;60.10;;;;;;5041742;28;20056;-47
2023/01/30 07:17:47;;;;;;;3.15;2.30;;;8.40;60.20;;;;;;5028170;28;20056;-44
2023/01/30 07:20:16;;;;;;;2.72;2.22;;;8.40;60.10;;;;;;5037601;28;20060;-46
2023/01/30 07:22:50;;;;;;;4.47;2.25;;;8.40;60.20;;;;;;5040633;28;20421;-48
2023/01/30 07:25:18;;;;;;;4.80;2.35;;;8.40;60.20;;;;;;5038045;28;20056;-46
2023/01/30 07:27:50;;;;;;;3.92;1.75;;;8.40;60.10;;;;;;5040201;28;20057;-46
2023/01/30 07:30:18;;;;;;;3.78;2.13;;;8.40;60.30;;;;;;5035983;28;20497;-45
2023/01/30 07:32:49;;;;;;;2.97;2.05;;;8.40;60.20;;;;;;5038103;28;20049;-47
2023/01/30 07:35:17;;;;;;;3.55;2.00;;;8.50;60.20;;;;;;5037949;28;20053;-47
2023/01/30 07:37:46;;;;;;;4.45;1.85;;;8.50;60.30;;;;;;5042051;28;20068;-48
2023/01/30 07:40:14;;;;;;;2.40;1.65;;;8.50;60.10;;;;;;5036524;28;20524;-47
2023/01/30 07:42:41;;;;;;;1.50;1.33;;;8.50;60.20;;;;;;5039813;28;20057;-47
2023/01/30 07:45:09;;;;;;;1.70;1.42;;;8.50;60.30;;;;;;5037722;28;20045;-48
2023/01/30 07:47:36;;;;;;;1.58;1.08;;;8.50;60.40;;;;;;5040800;28;20053;-49
2023/01/30 07:50:05;;;;;;;1.55;1.10;;;8.50;60.50;;;;;;5042177;28;20052;-46
2023/01/30 07:52:33;;;;;;;1.88;1.33;;;8.60;60.50;;;;;;5040560;28;20132;-47
2023/01/30 07:55:00;;;;;;;1.45;1.02;;;8.60;60.60;;;;;;5040551;28;20072;-47
2023/01/30 07:57:28;;;;;;;1.00;0.90;;;8.60;60.70;;;;;;5035963;28;20501;-49
2023/01/30 07:59:55;;;;;;;1.50;1.17;;;8.60;60.60;;;;;;5040119;28;20065;-47
2023/01/30 08:02:22;;;;;;;2.55;1.10;;;8.60;60.60;;;;;;5036445;28;20049;-46
2023/01/30 08:04:49;;;;;;;2.88;0.88;;;8.60;60.50;;;;;;5037865;28;20064;-47
2023/01/30 08:07:18;;;;;;;2.63;1.15;;;8.60;60.60;;;;;;5038711;28;20056;-49
2023/01/30 08:09:46;;;;;;;1.65;0.85;;;8.60;60.70;;;;;;5040861;28;20049;-48
2023/01/30 08:12:13;;;;;;;0.90;0.70;;;8.60;60.70;;;;;;5042906;28;20060;-49
2023/01/30 08:14:41;;;;;;;1.13;0.80;;;8.60;60.70;;;;;;5044460;28;20053;-46
2023/01/30 08:17:08;;;;;;;1.02;0.90;;;8.60;60.60;;;;;;5044995;28;20061;-46
2023/01/30 08:19:35;;;;;;;1.25;0.70;;;8.60;60.60;;;;;;5040633;28;20057;-47
2023/01/30 08:22:03;;;;;;;1.20;1.00;;;8.60;60.60;;;;;;5038255;28;20068;-45
2023/01/30 08:24:30;;;;;;;1.05;0.90;;;8.60;60.80;;;;;;5043165;28;20053;-45
2023/01/30 08:26:59;;;;;;;2.33;0.90;;;8.60;61.00;;;;;;5038639;28;20049;-47
2023/01/30 08:29:26;;;;;;;1.17;0.80;;;8.60;61.00;;;;;;5040860;28;20060;-48
2023/01/30 08:31:57;;;;;;;2.30;0.85;;;8.60;61.00;;;;;;5044820;28;20056;-46
2023/01/30 08:34:24;;;;;;;0.77;0.70;;;8.70;61.00;;;;;;5043659;28;20064;-48
2023/01/30 08:36:51;;;;;;;1.05;0.80;;;8.70;60.90;;;;;;5044663;28;20053;-45
2023/01/30 08:39:19;;;;;;;1.08;0.80;;;8.70;60.90;;;;;;5040219;28;20045;-49
2023/01/30 08:41:46;;;;;;;1.20;1.10;;;8.70;60.90;;;;;;5043401;28;20057;-44
2023/01/30 08:44:15;;;;;;;1.45;1.00;;;8.70;60.80;;;;;;5044043;28;20049;-48
2023/01/30 08:46:42;;;;;;;2.95;1.13;;;8.70;60.80;;;;;;5042799;28;20056;-48
2023/01/30 08:49:10;;;;;;;1.95;1.15;;;8.70;60.90;;;;;;5043746;28;20052;-49
2023/01/30 08:51:38;;;;;;;5.53;1.20;;;8.70;61.10;;;;;;5044638;28;20486;-45
2023/01/30 08:54:06;;;;;;;3.63;1.48;;;8.70;61.30;;;;;;5042799;28;20057;-47
2023/01/30 08:56:34;;;;;;;4.65;2.10;;;8.80;61.50;;;;;;5041296;28;20048;-46
2023/01/30 08:59:01;;;;;;;3.08;1.85;;;8.80;61.70;;;;;;5043508;28;20068;-47
2023/01/30 09:01:29;;;;;;;5.18;2.30;;;8.80;61.80;;;;;;5038935;28;20059;-49
2023/01/30 09:03:57;;;;;;;6.22;2.75;;;8.80;62.10;;;;;;5042782;28;20053;-48
2023/01/30 09:06:24;;;;;;;5.30;2.80;;;8.80;62.50;;;;;;5043585;28;20045;-46
2023/01/30 09:08:51;;;;;;;8.82;4.28;;;8.80;62.40;;;;;;5038478;28;20770;-47
2023/01/30 09:11:19;;;;;;;4.65;3.25;;;8.90;62.80;;;;;;5043040;28;20056;-48
2023/01/30 09:13:46;;;;;;;6.32;3.22;;;8.90;63.20;;;;;;5043465;28;20049;-45
2023/01/30 09:16:13;;;;;;;8.77;3.70;;;8.90;63.20;;;;;;5043867;28;20055;-45
2023/01/30 09:18:44;;;;;;;7.43;4.82;;;8.90;63.30;;;;;;5042549;28;20053;-46
2023/01/30 09:21:13;;;;;;;11.63;3.90;;;8.90;63.30;;;;;;5038048;28;20064;-46
2023/01/30 09:23:41;;;;;;;8.60;4.25;;;8.90;63.30;;;;;;5037717;28;20410;-51
2023/01/30 09:26:08;;;;;;;12.73;4.75;;;8.90;63.30;;;;;;5042959;28;20053;-50
2023/01/30 09:28:36;;;;;;;14.13;4.53;;;9.00;63.50;;;;;;5042572;28;20057;-49
2023/01/30 09:31:04;;;;;;;16.77;5.20;;;9.00;63.20;;;;;;5042014;28;20053;-48
2023/01/30 09:33:31;;;;;;;15.82;5.18;;;9.00;63.30;;;;;;5039577;28;20061;-46
2023/01/30 09:35:59;;;;;;;16.83;5.35;;;9.00;63.30;;;;;;5039870;28;20413;-49
2023/01/30 09:38:27;;;;;;;15.45;6.35;;;9.00;63.30;;;;;;5039054;28;20052;-48
2023/01/30 09:41:29;;;;;;;14.65;5.10;;;9.10;63.30;;;;;;5036105;28;20064;-46
2023/01/30 09:44:14;;;;;;;16.33;4.90;;;9.10;62.90;;;;;;5041244;28;20053;-49
2023/01/30 09:46:48;;;;;;;16.15;4.90;;;9.10;62.60;;;;;;5039354;28;20049;-50
2023/01/30 09:49:28;;;;;;;12.68;4.30;;;9.10;61.90;;;;;;5040444;28;20060;-49
2023/01/30 09:52:06;;;;;;;18.70;4.75;;;9.20;61.50;;;;;;5040014;28;20060;-47
2023/01/30 09:54:37;;;;;;;23.85;4.50;;;9.20;61.20;;;;;;5037222;28;20049;-50
2023/01/30 09:57:16;;;;;;;13.00;3.25;;;9.20;61.10;;;;;;5039167;28;20048;-47
2023/01/30 09:59:53;;;;;;;10.52;2.95;;;9.20;60.40;;;;;;5039526;28;20083;-47
2023/01/30 10:02:31;;;;;;;20.88;4.05;;;9.30;60.00;;;;;;5039780;28;20049;-48
2023/01/30 10:05:01;;;;;;;19.02;3.42;;;9.30;59.50;;;;;;5039493;28;20056;-46
2023/01/30 10:07:38;;;;;;;19.77;3.10;;;9.30;59.50;;;;;;5035320;28;20056;-47
2023/01/30 10:10:15;;;;;;;16.67;3.60;;;9.30;59.00;;;;;;5038082;28;20063;-46
2023/01/30 10:12:50;;;;;;;17.05;3.50;;;9.40;58.80;;;;;;5037742;28;20053;-52
2023/01/30 10:15:31;;;;;;;15.93;3.08;;;9.40;58.80;;;;;;5039854;28;20061;-46
2023/01/30 10:18:14;;;;;;;17.75;3.38;;;9.40;58.80;;;;;;5039030;28;20053;-49
2023/01/30 10:20:52;;;;;;;14.68;3.53;;;9.40;58.60;;;;;;5036973;28;20056;-47
2023/01/30 10:23:46;;;;;;;12.80;3.22;;;9.40;58.80;;;;;;5039549;28;20057;-49
2023/01/30 10:26:18;;;;;;;15.38;3.75;;;9.50;58.50;;;;;;5038283;28;20048;-46
2023/01/30 10:28:56;;;;;;;15.80;4.47;;;9.50;58.50;;;;;;5040469;28;20045;-49
2023/01/30 10:31:26;;;;;;;14.18;3.42;;;9.60;58.30;;;;;;5036735;28;20053;-45
2023/01/30 10:33:57;;;;;;;14.93;3.13;;;9.60;58.30;;;;;;5034276;28;20408;-49
2023/01/30 10:36:32;;;;;;;20.02;3.58;;;9.70;57.70;;;;;;5038348;28;20497;-44
2023/01/30 10:39:07;;;;;;;9.20;3.25;;;9.70;57.90;;;;;;5033315;28;20489;-46
2023/01/30 10:41:37;;;;;;;20.23;3.25;;;9.70;57.30;;;;;;5034662;28;20053;-49
2023/01/30 10:44:10;;;;;;;18.33;3.03;;;9.80;57.20;;;;;;5035784;28;20052;-51
2023/01/30 10:47:05;;;;;;;22.17;3.97;;;9.80;57.20;;;;;;5038811;28;20061;-49
2023/01/30 10:49:40;;;;;;;17.67;3.38;;;9.80;57.00;;;;;;5039648;28;20064;-49
2023/01/30 10:52:27;;;;;;;11.88;2.92;;;9.90;57.10;;;;;;5039213;28;20061;-47
2023/01/30 10:55:08;;;;;;;11.85;3.03;;;10.00;56.60;;;;;;5033699;28;20053;-49
2023/01/30 10:57:51;;;;;;;13.90;3.47;;;10.00;55.80;;;;;;5039632;28;20052;-48
2023/01/30 11:00:27;;;;;;;21.25;3.00;;;10.00;56.20;;;;;;5038827;28;20048;-45
2023/01/30 11:03:20;;;;;;;18.67;3.17;;;10.10;56.10;;;;;;5039601;28;20398;-46
2023/01/30 11:05:50;;;;;;;13.40;2.92;;;10.10;55.70;;;;;;5034737;28;20424;-46
2023/01/30 11:08:26;;;;;;;18.30;2.85;;;10.20;55.90;;;;;;5039580;28;20505;-49
2023/01/30 11:10:57;;;;;;;19.83;4.53;;;10.20;55.30;;;;;;5028894;28;20064;-59
2023/01/30 11:13:29;;;;;;;14.73;2.63;;;10.20;54.80;;;;;;5040120;28;20061;-58
2023/01/30 11:15:59;;;;;;;20.48;3.50;;;10.20;54.40;;;;;;5038545;28;20428;-49
2023/01/30 11:18:27;;;;;;;20.50;3.05;;;10.10;54.20;;;;;;5039284;28;20052;-51
2023/01/30 11:21:15;;;;;;;14.57;2.55;;;10.20;54.20;;;;;;5037453;28;20063;-48
2023/01/30 11:23:43;;;;;;;18.02;2.72;;;10.20;54.10;;;;;;5035708;28;20523;-46
2023/01/30 11:26:19;;;;;;;15.25;2.38;;;10.10;53.70;;;;;;5038683;28;20057;-47
2023/01/30 11:28:47;;;;;;;22.95;2.90;;;10.10;53.10;;;;;;5038023;28;20754;-55
2023/01/30 11:31:19;;;;;;;17.38;2.78;;;10.10;52.70;;;;;;5037992;28;20428;-49
2023/01/30 11:33:59;;;;;;;20.98;3.15;;;10.00;52.20;;;;;;5040013;28;20052;-49
2023/01/30 11:36:29;;;;;;;10.77;2.90;;;10.10;53.20;;;;;;5039283;28;20045;-52
2023/01/30 11:38:59;;;;;;;12.93;2.33;;;10.00;53.30;;;;;;5033852;28;20456;-47
2023/01/30 11:41:29;;;;;;;15.05;2.63;;;10.10;53.50;;;;;;5040060;28;20060;-51
2023/01/30 11:44:05;;;;;;;13.52;2.20;;;10.10;53.50;;;;;;5041705;28;20056;-52
2023/01/30 11:46:36;;;;;;;18.48;3.30;;;10.10;53.30;;;;;;5043488;28;20421;-45
2023/01/30 11:49:10;;;;;;;23.45;3.20;;;10.10;53.30;;;;;;5038944;28;20057;-48
2023/01/30 11:51:38;;;;;;;;;;;10.10;52.90;;;;;;5043921;28;20053;-57
2023/01/30 11:54:07;;;;;;;16.85;4.00;;;10.10;52.80;;;;;;5036308;28;19924;-48
2023/01/30 11:56:39;;;;;;;17.58;3.38;;;10.10;53.10;;;;;;5043511;28;20052;-48
2023/01/30 11:59:19;;;;;;;19.75;3.10;;;10.20;53.40;;;;;;5042600;28;20057;-52
2023/01/30 12:01:47;;;;;;;15.93;3.50;;;10.20;53.10;;;;;;5038508;28;20048;-50
2023/01/30 12:04:14;;;;;;;24.48;3.33;;;10.10;53.00;;;;;;5041910;28;20057;-51
2023/01/30 12:06:43;;;;;;;18.35;3.25;;;10.10;52.90;;;;;;5043849;28;20049;-52
2023/01/30 12:09:32;;;;;;;17.02;3.42;;;10.10;53.00;;;;;;5038246;28;20416;-50
2023/01/30 12:12:01;;;;;;;19.63;2.70;;;10.10;53.20;;;;;;5042505;28;20053;-57
2023/01/30 12:14:38;;;;;;;21.20;3.47;;;10.00;53.10;;;;;;5043884;28;20049;-51
2023/01/30 12:17:17;;;;;;;17.73;2.75;;;10.00;53.10;;;;;;5041380;28;20615;-56
2023/01/30 12:19:58;;;;;;;21.80;3.28;;;10.00;53.00;;;;;;5040975;28;20051;-47
2023/01/30 12:22:33;;;;;;;14.38;2.65;;;10.00;53.10;;;;;;5040799;28;20049;-53
2023/01/30 12:25:03;;;;;;;19.33;3.58;;;10.00;53.30;;;;;;5035065;28;20045;-46
2023/01/30 12:27:45;;;;;;;16.67;2.92;;;10.00;53.10;;;;;;5041227;28;20049;-46
2023/01/30 12:30:22;;;;;;;13.88;2.22;;;10.00;53.40;;;;;;5041922;28;20053;-46
2023/01/30 12:32:49;;;;;;;23.05;3.17;;;10.00;53.00;;;;;;5041663;28;20596;-46
2023/01/30 12:35:18;;;;;;;20.40;3.40;;;10.10;52.80;;;;;;5037968;28;20057;-54
2023/01/30 12:37:59;;;;;;;20.42;2.85;;;10.00;52.90;;;;;;5038244;28;20068;-46
2023/01/30 12:40:39;;;;;;;21.48;4.45;;;10.00;52.90;;;;;;5039738;28;20053;-49
2023/01/30 12:43:29;;;;;;;20.20;3.75;;;10.10;53.10;;;;;;5040313;28;20079;-46
2023/01/30 12:46:07;;;;;;;23.92;3.90;;;10.10;52.70;;;;;;5041274;28;20496;-50
2023/01/30 12:48:54;;;;;;;27.90;3.85;;;10.10;52.70;;;;;;5041596;28;20064;-48
2023/01/30 12:51:37;;;;;;;16.98;3.25;;;10.00;52.60;;;;;;5042213;28;20061;-45
2023/01/30 12:54:16;;;;;;;23.25;3.15;;;10.00;52.60;;;;;;5036767;28;20049;-44
2023/01/30 12:56:55;;;;;;;22.30;3.00;;;10.10;52.60;;;;;;5041095;28;20055;-45
2023/01/30 12:59:30;;;;;;;28.27;4.53;;;10.00;52.50;;;;;;5038751;28;20064;-54
2023/01/30 13:02:16;;;;;;;21.48;3.42;;;10.00;52.10;;;;;;5042490;28;20429;-53
2023/01/30 13:04:51;;;;;;;15.50;2.83;;;10.00;52.00;;;;;;5036861;28;20111;-58
2023/01/30 13:07:24;;;;;;;20.70;4.50;;;10.00;52.30;;;;;;5039912;28;20045;-49
2023/01/30 13:10:03;;;;;;;16.80;3.00;;;10.00;52.40;;;;;;5034687;28;20481;-47
2023/01/30 13:12:42;;;;;;;22.33;3.10;;;10.00;52.30;;;;;;5039667;28;20543;-56